createdAt,value
2018-12-17T00:00:43.159Z,0.00
2018-12-17T00:01:43.152Z,0.00
2018-12-17T00:02:43.139Z,0.00
2018-12-17T00:03:43.129Z,0.00
2018-12-17T00:04:43.118Z,0.00
2018-12-17T00:05:43.111Z,0.00
2018-12-17T00:06:43.097Z,0.00
2018-12-17T00:07:43.087Z,0.00
2018-12-17T00:08:43.077Z,0.00
2018-12-17T00:09:43.067Z,0.00
2018-12-17T00:10:43.054Z,0.00
2018-12-17T00:11:43.048Z,0.00
2018-12-17T00:12:43.036Z,0.00
2018-12-17T00:13:43.027Z,0.00
2018-12-17T00:14:43.017Z,0.00
2018-12-17T00:15:43.004Z,0.00
2018-12-17T00:16:42.994Z,0.00
2018-12-17T00:17:42.984Z,0.00
2018-12-17T00:18:42.972Z,0.00
2018-12-17T00:19:42.964Z,0.00
2018-12-17T00:20:42.950Z,0.00
2018-12-17T00:21:42.947Z,0.00
2018-12-17T00:22:42.935Z,0.00
2018-12-17T00:23:42.922Z,0.00
2018-12-17T00:24:42.909Z,0.00
2018-12-17T00:25:42.902Z,0.00
2018-12-17T00:26:42.889Z,0.00
2018-12-17T00:27:42.874Z,0.00
2018-12-17T00:28:42.867Z,0.00
2018-12-17T00:29:42.861Z,0.00
2018-12-17T00:30:42.848Z,0.00
2018-12-17T00:31:42.834Z,0.00
2018-12-17T00:32:42.824Z,0.00
2018-12-17T00:33:42.813Z,0.00
2018-12-17T00:34:42.805Z,0.00
2018-12-17T00:35:42.797Z,0.00
2018-12-17T00:36:42.785Z,0.00
2018-12-17T00:37:42.773Z,0.00
2018-12-17T00:38:42.761Z,0.00
2018-12-17T00:39:42.752Z,0.00
2018-12-17T00:40:42.740Z,0.00
2018-12-17T00:41:42.733Z,0.00
2018-12-17T00:42:42.783Z,0.00
2018-12-17T00:43:42.714Z,0.00
2018-12-17T00:44:42.701Z,0.00
2018-12-17T00:45:42.689Z,0.00
2018-12-17T00:46:42.678Z,0.00
2018-12-17T00:47:42.666Z,0.00
2018-12-17T00:48:42.655Z,0.00
2018-12-17T00:49:42.651Z,0.00
2018-12-17T00:50:42.636Z,0.00
2018-12-17T00:51:42.625Z,0.00
2018-12-17T00:52:42.613Z,0.00
2018-12-17T00:53:42.604Z,0.00
2018-12-17T00:54:42.596Z,0.00
2018-12-17T00:55:42.581Z,0.00
2018-12-17T00:56:42.571Z,0.00
2018-12-17T00:57:42.560Z,0.00
2018-12-17T00:58:42.559Z,0.00
2018-12-17T00:59:42.540Z,0.00
2018-12-17T01:00:42.531Z,0.00
2018-12-17T01:01:42.520Z,0.00
2018-12-17T01:02:42.510Z,0.00
2018-12-17T01:03:42.497Z,0.00
2018-12-17T01:04:42.489Z,0.00
2018-12-17T01:05:42.481Z,0.00
2018-12-17T01:06:42.468Z,0.00
2018-12-17T01:07:42.460Z,0.00
2018-12-17T01:08:42.447Z,0.00
2018-12-17T01:09:42.435Z,0.00
2018-12-17T01:10:42.425Z,0.00
2018-12-17T01:11:42.416Z,0.00
2018-12-17T01:12:42.402Z,0.00
2018-12-17T01:13:42.393Z,0.00
2018-12-17T01:14:42.384Z,0.00
2018-12-17T01:15:42.371Z,0.00
2018-12-17T01:16:42.362Z,0.00
2018-12-17T01:17:42.350Z,0.00
2018-12-17T01:18:42.339Z,0.00
2018-12-17T01:19:42.331Z,0.00
2018-12-17T01:20:42.319Z,0.00
2018-12-17T01:21:42.311Z,0.00
2018-12-17T01:22:42.298Z,0.00
2018-12-17T01:23:42.290Z,0.00
2018-12-17T01:24:42.279Z,0.00
2018-12-17T01:25:42.268Z,0.00
2018-12-17T01:26:42.259Z,0.00
2018-12-17T01:27:42.248Z,0.00
2018-12-17T01:28:42.236Z,0.00
2018-12-17T01:29:42.226Z,0.00
2018-12-17T01:30:42.213Z,0.00
2018-12-17T01:31:42.207Z,0.00
2018-12-17T01:32:42.193Z,0.00
2018-12-17T01:33:42.240Z,0.00
2018-12-17T01:34:42.173Z,0.00
2018-12-17T01:35:42.163Z,0.00
2018-12-17T01:36:42.155Z,0.00
2018-12-17T01:37:42.142Z,0.00
2018-12-17T01:38:42.131Z,0.00
2018-12-17T01:39:42.125Z,0.00
2018-12-17T01:40:42.185Z,0.00
2018-12-17T01:41:42.102Z,0.00
2018-12-17T01:42:42.091Z,0.00
2018-12-17T01:43:42.086Z,0.00
2018-12-17T01:44:42.070Z,0.00
2018-12-17T01:45:42.058Z,0.00
2018-12-17T01:46:42.047Z,0.00
2018-12-17T01:47:42.036Z,0.00
2018-12-17T01:48:42.031Z,0.00
2018-12-17T01:49:42.016Z,0.00
2018-12-17T01:50:42.005Z,0.00
2018-12-17T01:51:41.993Z,0.00
2018-12-17T01:52:41.983Z,0.00
2018-12-17T01:53:41.977Z,0.00
2018-12-17T01:54:41.966Z,0.00
2018-12-17T01:55:41.952Z,0.00
2018-12-17T01:56:41.945Z,0.00
2018-12-17T01:57:41.931Z,0.00
2018-12-17T01:58:41.920Z,0.00
2018-12-17T01:59:41.917Z,0.00
2018-12-17T02:00:41.900Z,0.00
2018-12-17T02:01:41.891Z,0.00
2018-12-17T02:02:41.881Z,0.00
2018-12-17T02:03:41.870Z,0.00
2018-12-17T02:04:41.859Z,0.00
2018-12-17T02:05:41.851Z,0.00
2018-12-17T02:06:41.837Z,0.00
2018-12-17T02:07:41.824Z,0.00
2018-12-17T02:08:41.817Z,0.00
2018-12-17T02:09:41.807Z,0.00
2018-12-17T02:10:41.794Z,0.00
2018-12-17T02:11:41.789Z,0.00
2018-12-17T02:12:41.774Z,0.00
2018-12-17T02:13:41.761Z,0.00
2018-12-17T02:14:41.753Z,0.00
2018-12-17T02:15:41.742Z,0.00
2018-12-17T02:16:41.732Z,0.00
2018-12-17T02:17:41.722Z,0.00
2018-12-17T02:18:41.710Z,0.00
2018-12-17T02:19:41.703Z,0.00
2018-12-17T02:20:41.691Z,0.00
2018-12-17T02:21:41.683Z,0.00
2018-12-17T02:22:41.668Z,0.00
2018-12-17T02:23:41.658Z,0.00
2018-12-17T02:24:41.648Z,0.00
2018-12-17T02:25:41.638Z,0.00
2018-12-17T02:26:41.626Z,0.00
2018-12-17T02:27:41.616Z,0.00
2018-12-17T02:28:41.608Z,0.00
2018-12-17T02:29:41.595Z,0.00
2018-12-17T02:30:41.597Z,0.00
2018-12-17T02:31:41.577Z,0.00
2018-12-17T02:32:41.570Z,0.00
2018-12-17T02:33:41.560Z,0.00
2018-12-17T02:34:41.543Z,0.00
2018-12-17T02:35:41.533Z,0.00
2018-12-17T02:36:41.523Z,0.00
2018-12-17T02:37:41.512Z,0.00
2018-12-17T02:38:41.507Z,0.00
2018-12-17T02:39:41.495Z,0.00
2018-12-17T02:40:41.482Z,0.00
2018-12-17T02:41:41.471Z,0.00
2018-12-17T02:42:41.464Z,0.00
2018-12-17T02:43:41.452Z,0.00
2018-12-17T02:44:41.438Z,0.00
2018-12-17T02:45:41.426Z,0.00
2018-12-17T02:46:41.416Z,0.00
2018-12-17T02:47:41.408Z,0.00
2018-12-17T02:48:41.394Z,0.00
2018-12-17T02:49:41.387Z,0.00
2018-12-17T02:50:41.375Z,0.00
2018-12-17T02:51:41.364Z,0.00
2018-12-17T02:52:41.356Z,0.00
2018-12-17T02:53:41.345Z,0.00
2018-12-17T02:54:41.333Z,0.00
2018-12-17T02:55:41.322Z,0.00
2018-12-17T02:56:41.313Z,0.00
2018-12-17T02:57:41.301Z,0.00
2018-12-17T02:58:44.105Z,0.00
2018-12-17T02:59:41.280Z,0.00
2018-12-17T03:00:41.270Z,0.00
2018-12-17T03:01:41.258Z,0.00
2018-12-17T03:02:41.249Z,0.00
2018-12-17T03:03:41.238Z,0.00
2018-12-17T03:04:41.226Z,0.00
2018-12-17T03:05:41.217Z,0.00
2018-12-17T03:06:41.205Z,0.00
2018-12-17T03:07:41.195Z,0.00
2018-12-17T03:08:41.197Z,0.00
2018-12-17T03:09:41.175Z,0.00
2018-12-17T03:10:41.165Z,0.00
2018-12-17T03:11:41.154Z,0.00
2018-12-17T03:12:41.147Z,0.00
2018-12-17T03:13:41.135Z,0.00
2018-12-17T03:14:41.122Z,0.00
2018-12-17T03:15:41.113Z,0.00
2018-12-17T03:16:41.103Z,0.00
2018-12-17T03:17:41.092Z,0.00
2018-12-17T03:18:41.083Z,0.00
2018-12-17T03:19:41.068Z,0.00
2018-12-17T03:20:41.058Z,0.00
2018-12-17T03:21:41.051Z,0.00
2018-12-17T03:22:41.058Z,0.00
2018-12-17T03:23:41.030Z,0.00
2018-12-17T03:24:41.018Z,0.00
2018-12-17T03:25:41.007Z,0.00
2018-12-17T03:26:40.998Z,0.00
2018-12-17T03:27:40.986Z,0.00
2018-12-17T03:28:40.980Z,0.00
2018-12-17T03:29:40.964Z,0.00
2018-12-17T03:30:40.959Z,0.00
2018-12-17T03:31:40.948Z,0.00
2018-12-17T03:32:40.948Z,0.00
2018-12-17T03:33:40.934Z,0.00
2018-12-17T03:34:40.912Z,0.00
2018-12-17T03:35:40.906Z,0.00
2018-12-17T03:36:40.894Z,0.00
2018-12-17T03:37:40.881Z,0.00
2018-12-17T03:38:40.870Z,0.00
2018-12-17T03:39:40.863Z,0.00
2018-12-17T03:40:40.852Z,0.00
2018-12-17T03:41:40.839Z,0.00
2018-12-17T03:42:40.828Z,0.00
2018-12-17T03:43:40.818Z,0.00
2018-12-17T03:44:40.807Z,0.00
2018-12-17T03:45:40.798Z,0.00
2018-12-17T03:46:40.789Z,0.00
2018-12-17T03:47:40.775Z,0.00
2018-12-17T03:48:40.765Z,0.00
2018-12-17T03:49:40.755Z,0.00
2018-12-17T03:50:40.745Z,0.00
2018-12-17T03:51:40.743Z,0.00
2018-12-17T03:52:40.726Z,0.00
2018-12-17T03:53:40.713Z,0.00
2018-12-17T03:54:40.704Z,0.00
2018-12-17T03:55:40.691Z,0.00
2018-12-17T03:56:40.684Z,0.00
2018-12-17T03:57:40.673Z,0.00
2018-12-17T03:58:40.661Z,0.00
2018-12-17T03:59:40.649Z,0.00
2018-12-17T04:00:40.641Z,0.00
2018-12-17T04:01:40.631Z,0.00
2018-12-17T04:02:40.619Z,0.00
2018-12-17T04:03:40.613Z,0.00
2018-12-17T04:04:40.598Z,0.00
2018-12-17T04:05:40.589Z,0.00
2018-12-17T04:06:40.577Z,0.00
2018-12-17T04:07:40.567Z,0.00
2018-12-17T04:08:40.567Z,0.00
2018-12-17T04:09:40.544Z,0.00
2018-12-17T04:10:40.534Z,0.00
2018-12-17T04:11:40.528Z,0.00
2018-12-17T04:12:40.514Z,0.00
2018-12-17T04:13:40.506Z,0.00
2018-12-17T04:14:40.493Z,0.00
2018-12-17T04:15:40.482Z,0.00
2018-12-17T04:16:40.472Z,0.00
2018-12-17T04:17:40.465Z,0.00
2018-12-17T04:18:40.453Z,0.00
2018-12-17T04:19:40.441Z,0.00
2018-12-17T04:20:40.429Z,0.00
2018-12-17T04:21:40.421Z,0.00
2018-12-17T04:22:40.408Z,0.00
2018-12-17T04:23:40.403Z,0.00
2018-12-17T04:24:40.389Z,0.00
2018-12-17T04:25:40.377Z,0.00
2018-12-17T04:26:40.366Z,0.00
2018-12-17T04:27:40.357Z,0.00
2018-12-17T04:28:40.346Z,0.00
2018-12-17T04:29:40.345Z,0.00
2018-12-17T04:30:40.326Z,0.00
2018-12-17T04:31:40.314Z,0.00
2018-12-17T04:32:40.302Z,0.00
2018-12-17T04:33:40.294Z,0.00
2018-12-17T04:34:40.321Z,0.00
2018-12-17T04:35:40.276Z,0.00
2018-12-17T04:36:40.265Z,0.00
2018-12-17T04:37:40.250Z,0.00
2018-12-17T04:38:40.241Z,0.00
2018-12-17T04:39:40.237Z,0.00
2018-12-17T04:40:40.240Z,0.00
2018-12-17T04:41:40.213Z,0.00
2018-12-17T04:42:40.198Z,0.00
2018-12-17T04:43:40.188Z,0.00
2018-12-17T04:44:40.181Z,0.00
2018-12-17T04:45:40.168Z,0.00
2018-12-17T04:46:40.155Z,0.00
2018-12-17T04:47:40.152Z,0.00
2018-12-17T04:48:40.140Z,0.00
2018-12-17T04:49:40.125Z,0.00
2018-12-17T04:50:40.115Z,0.00
2018-12-17T04:51:40.106Z,0.00
2018-12-17T04:52:40.093Z,0.00
2018-12-17T04:53:40.089Z,0.00
2018-12-17T04:54:40.079Z,0.00
2018-12-17T04:55:40.064Z,0.00
2018-12-17T04:56:40.053Z,0.00
2018-12-17T04:57:40.046Z,0.00
2018-12-17T04:58:40.035Z,0.00
2018-12-17T04:59:40.022Z,0.00
2018-12-17T05:00:40.011Z,0.00
2018-12-17T05:01:40.000Z,0.00
2018-12-17T05:02:39.990Z,0.00
2018-12-17T05:03:39.979Z,0.00
2018-12-17T05:04:39.967Z,0.00
2018-12-17T05:05:39.958Z,0.00
2018-12-17T05:06:39.953Z,0.00
2018-12-17T05:07:39.936Z,0.00
2018-12-17T05:08:39.929Z,0.00
2018-12-17T05:09:39.918Z,0.00
2018-12-17T05:10:39.906Z,0.00
2018-12-17T05:11:39.894Z,0.00
2018-12-17T05:12:39.889Z,0.00
2018-12-17T05:13:39.873Z,0.00
2018-12-17T05:14:39.862Z,0.00
2018-12-17T05:15:39.855Z,0.00
2018-12-17T05:16:39.842Z,0.00
2018-12-17T05:17:39.831Z,0.00
2018-12-17T05:18:39.820Z,0.00
2018-12-17T05:19:39.816Z,0.00
2018-12-17T05:20:39.803Z,0.00
2018-12-17T05:21:39.791Z,0.00
2018-12-17T05:22:39.794Z,0.00
2018-12-17T05:23:39.774Z,0.00
2018-12-17T05:24:39.760Z,0.00
2018-12-17T05:25:39.762Z,0.00
2018-12-17T05:26:39.736Z,0.00
2018-12-17T05:27:39.726Z,0.00
2018-12-17T05:28:39.715Z,0.00
2018-12-17T05:29:39.705Z,0.00
2018-12-17T05:30:39.695Z,0.00
2018-12-17T05:31:39.684Z,0.00
2018-12-17T05:32:39.673Z,0.00
2018-12-17T05:33:39.678Z,0.00
2018-12-17T05:34:39.656Z,0.00
2018-12-17T05:35:39.643Z,0.00
2018-12-17T05:36:39.633Z,0.00
2018-12-17T05:37:39.625Z,0.00
2018-12-17T05:38:39.613Z,0.00
2018-12-17T05:39:39.603Z,0.00
2018-12-17T05:40:39.590Z,0.00
2018-12-17T05:41:39.581Z,0.00
2018-12-17T05:42:39.568Z,0.00
2018-12-17T05:43:39.558Z,0.00
2018-12-17T05:44:39.549Z,0.00
2018-12-17T05:45:39.537Z,0.00
2018-12-17T05:46:39.527Z,0.00
2018-12-17T05:47:39.516Z,0.00
2018-12-17T05:48:39.506Z,0.00
2018-12-17T05:49:39.495Z,0.00
2018-12-17T05:50:39.552Z,0.00
2018-12-17T05:51:39.475Z,0.00
2018-12-17T05:52:39.463Z,0.00
2018-12-17T05:53:39.452Z,0.00
2018-12-17T05:54:39.443Z,0.00
2018-12-17T05:55:39.430Z,0.00
2018-12-17T05:56:39.426Z,0.00
2018-12-17T05:57:39.413Z,0.00
2018-12-17T05:58:39.413Z,0.00
2018-12-17T05:59:39.389Z,0.00
2018-12-17T06:00:39.388Z,0.00
2018-12-17T06:01:39.379Z,0.00
2018-12-17T06:02:39.358Z,0.00
2018-12-17T06:03:39.348Z,0.00
2018-12-17T06:04:39.339Z,0.00
2018-12-17T06:05:39.328Z,0.00
2018-12-17T06:06:39.315Z,0.00
2018-12-17T06:07:39.305Z,0.00
2018-12-17T06:08:39.295Z,0.00
2018-12-17T06:09:39.283Z,0.00
2018-12-17T06:10:39.273Z,0.00
2018-12-17T06:11:39.265Z,0.00
2018-12-17T06:12:39.253Z,0.00
2018-12-17T06:13:39.244Z,0.00
2018-12-17T06:14:39.241Z,0.00
2018-12-17T06:15:39.224Z,0.00
2018-12-17T06:16:39.215Z,0.00
2018-12-17T06:17:39.200Z,0.00
2018-12-17T06:18:39.189Z,0.00
2018-12-17T06:19:39.180Z,0.00
2018-12-17T06:20:39.174Z,0.00
2018-12-17T06:21:39.163Z,0.00
2018-12-17T06:22:39.148Z,0.00
2018-12-17T06:23:39.137Z,0.00
2018-12-17T06:24:39.127Z,0.00
2018-12-17T06:25:39.115Z,0.00
2018-12-17T06:26:39.107Z,0.00
2018-12-17T06:27:39.095Z,0.00
2018-12-17T06:28:39.085Z,0.00
2018-12-17T06:29:39.079Z,0.00
2018-12-17T06:30:39.064Z,0.00
2018-12-17T06:31:39.056Z,0.00
2018-12-17T06:32:39.045Z,0.00
2018-12-17T06:33:39.033Z,0.00
2018-12-17T06:34:39.023Z,0.00
2018-12-17T06:35:39.016Z,0.00
2018-12-17T06:36:39.007Z,0.00
2018-12-17T06:37:38.989Z,0.00
2018-12-17T06:38:38.980Z,0.00
2018-12-17T06:39:38.969Z,0.00
2018-12-17T06:40:38.958Z,0.00
2018-12-17T06:41:38.950Z,0.00
2018-12-17T06:42:38.937Z,0.00
2018-12-17T06:43:38.929Z,0.00
2018-12-17T06:44:38.917Z,0.00
2018-12-17T06:45:38.905Z,0.00
2018-12-17T06:46:38.897Z,0.00
2018-12-17T06:47:38.883Z,0.00
2018-12-17T06:48:38.875Z,0.00
2018-12-17T06:49:38.868Z,0.00
2018-12-17T06:50:38.855Z,0.00
2018-12-17T06:51:38.844Z,0.00
2018-12-17T06:52:38.832Z,0.00
2018-12-17T06:53:38.823Z,0.00
2018-12-17T06:54:38.816Z,0.00
2018-12-17T06:55:38.806Z,0.00
2018-12-17T06:56:38.790Z,0.00
2018-12-17T06:57:38.826Z,0.00
2018-12-17T06:58:38.768Z,0.00
2018-12-17T06:59:42.667Z,0.00
2018-12-17T07:00:38.754Z,0.00
2018-12-17T07:01:38.745Z,0.00
2018-12-17T07:02:38.728Z,0.00
2018-12-17T07:03:38.718Z,0.00
2018-12-17T07:04:38.706Z,0.00
2018-12-17T07:05:38.696Z,0.00
2018-12-17T07:06:38.685Z,0.00
2018-12-17T07:07:38.676Z,0.00
2018-12-17T07:08:38.665Z,0.00
2018-12-17T07:09:38.653Z,0.00
2018-12-17T07:10:38.643Z,5.62
2018-12-17T07:11:38.633Z,5.62
2018-12-17T07:12:38.621Z,5.62
2018-12-17T07:13:38.612Z,5.62
2018-12-17T07:14:38.602Z,5.62
2018-12-17T07:15:38.590Z,5.62
2018-12-17T07:16:38.582Z,5.62
2018-12-17T07:17:38.569Z,5.62
2018-12-17T07:18:38.559Z,5.62
2018-12-17T07:19:38.548Z,11.25
2018-12-17T07:20:38.539Z,11.25
2018-12-17T07:21:38.530Z,11.25
2018-12-17T07:22:38.516Z,11.25
2018-12-17T07:23:38.506Z,11.25
2018-12-17T07:24:38.497Z,11.25
2018-12-17T07:25:38.485Z,11.25
2018-12-17T07:26:38.475Z,16.88
2018-12-17T07:27:38.465Z,16.88
2018-12-17T07:28:38.454Z,16.88
2018-12-17T07:29:38.444Z,16.88
2018-12-17T07:30:38.434Z,16.88
2018-12-17T07:31:38.422Z,16.88
2018-12-17T07:32:38.411Z,16.88
2018-12-17T07:33:38.401Z,16.88
2018-12-17T07:34:38.391Z,16.88
2018-12-17T07:35:38.383Z,16.88
2018-12-17T07:36:38.373Z,16.88
2018-12-17T07:37:38.360Z,22.50
2018-12-17T07:38:38.350Z,22.50
2018-12-17T07:39:38.338Z,22.50
2018-12-17T07:40:38.329Z,22.50
2018-12-17T07:41:38.318Z,22.50
2018-12-17T07:42:38.309Z,22.50
2018-12-17T07:43:38.296Z,28.12
2018-12-17T07:44:38.285Z,28.12
2018-12-17T07:45:38.276Z,28.12
2018-12-17T07:46:38.267Z,28.12
2018-12-17T07:47:38.254Z,28.12
2018-12-17T07:48:38.247Z,28.12
2018-12-17T07:49:38.234Z,33.75
2018-12-17T07:50:38.225Z,33.75
2018-12-17T07:51:38.213Z,33.75
2018-12-17T07:52:38.204Z,33.75
2018-12-17T07:53:38.191Z,39.38
2018-12-17T07:54:38.186Z,39.38
2018-12-17T07:55:38.172Z,39.38
2018-12-17T07:56:38.162Z,39.38
2018-12-17T07:57:38.152Z,45.00
2018-12-17T07:58:38.142Z,45.00
2018-12-17T07:59:38.130Z,45.00
2018-12-17T08:00:38.119Z,45.00
2018-12-17T08:01:38.107Z,50.62
2018-12-17T08:02:38.101Z,50.62
2018-12-17T08:03:38.086Z,50.62
2018-12-17T08:04:38.076Z,56.25
2018-12-17T08:05:38.065Z,56.25
2018-12-17T08:06:38.055Z,61.88
2018-12-17T08:07:38.043Z,61.88
2018-12-17T08:08:38.034Z,67.50
2018-12-17T08:09:38.023Z,73.12
2018-12-17T08:10:38.015Z,73.12
2018-12-17T08:11:38.003Z,78.75
2018-12-17T08:12:37.992Z,73.12
2018-12-17T08:13:37.981Z,73.12
2018-12-17T08:14:37.970Z,67.50
2018-12-17T08:15:37.960Z,67.50
2018-12-17T08:16:37.961Z,67.50
2018-12-17T08:17:37.939Z,73.12
2018-12-17T08:18:37.928Z,73.12
2018-12-17T08:19:37.918Z,78.75
2018-12-17T08:20:37.907Z,78.75
2018-12-17T08:21:37.898Z,84.38
2018-12-17T08:22:37.888Z,90.00
2018-12-17T08:23:37.878Z,90.00
2018-12-17T08:24:37.865Z,90.00
2018-12-17T08:25:37.914Z,90.00
2018-12-17T08:26:37.844Z,84.38
2018-12-17T08:27:37.834Z,84.38
2018-12-17T08:28:37.824Z,90.00
2018-12-17T08:29:37.814Z,95.62
2018-12-17T08:30:37.801Z,95.62
2018-12-17T08:31:37.794Z,90.00
2018-12-17T08:32:37.784Z,95.62
2018-12-17T08:33:37.770Z,95.62
2018-12-17T08:34:37.759Z,95.62
2018-12-17T08:35:37.752Z,101.25
2018-12-17T08:36:37.808Z,101.25
2018-12-17T08:37:37.729Z,106.88
2018-12-17T08:38:37.718Z,101.25
2018-12-17T08:39:37.710Z,101.25
2018-12-17T08:40:37.702Z,95.62
2018-12-17T08:41:37.691Z,95.62
2018-12-17T08:42:37.676Z,95.62
2018-12-17T08:43:37.666Z,95.62
2018-12-17T08:44:37.655Z,101.25
2018-12-17T08:45:37.647Z,106.88
2018-12-17T08:46:37.633Z,106.88
2018-12-17T08:47:37.630Z,112.50
2018-12-17T08:48:37.615Z,123.75
2018-12-17T08:49:37.602Z,123.75
2018-12-17T08:50:37.592Z,123.75
2018-12-17T08:51:37.582Z,118.12
2018-12-17T08:52:37.569Z,123.75
2018-12-17T08:53:37.562Z,123.75
2018-12-17T08:54:37.549Z,123.75
2018-12-17T08:55:37.539Z,123.75
2018-12-17T08:56:37.531Z,118.12
2018-12-17T08:57:38.049Z,123.75
2018-12-17T08:58:37.576Z,118.12
2018-12-17T08:59:37.497Z,123.75
2018-12-17T09:00:37.486Z,123.75
2018-12-17T09:01:37.478Z,123.75
2018-12-17T09:02:37.466Z,123.75
2018-12-17T09:03:37.455Z,123.75
2018-12-17T09:04:37.445Z,123.75
2018-12-17T09:05:37.433Z,123.75
2018-12-17T09:06:37.425Z,118.12
2018-12-17T09:07:37.416Z,112.50
2018-12-17T09:08:37.401Z,112.50
2018-12-17T09:09:37.391Z,118.12
2018-12-17T09:10:37.381Z,118.12
2018-12-17T09:11:37.372Z,129.38
2018-12-17T09:12:37.359Z,146.25
2018-12-17T09:13:37.352Z,168.75
2018-12-17T09:14:37.340Z,174.38
2018-12-17T09:15:37.328Z,185.62
2018-12-17T09:16:37.318Z,180.00
2018-12-17T09:17:37.307Z,168.75
2018-12-17T09:18:37.297Z,157.50
2018-12-17T09:19:37.286Z,151.88
2018-12-17T09:20:37.278Z,157.50
2018-12-17T09:21:37.265Z,151.88
2018-12-17T09:22:37.254Z,146.25
2018-12-17T09:23:37.243Z,140.62
2018-12-17T09:24:37.234Z,140.62
2018-12-17T09:25:37.222Z,140.62
2018-12-17T09:26:37.212Z,140.62
2018-12-17T09:27:37.203Z,140.62
2018-12-17T09:28:37.193Z,146.25
2018-12-17T09:29:37.181Z,146.25
2018-12-17T09:30:41.305Z,151.88
2018-12-17T09:31:37.160Z,151.88
2018-12-17T09:32:37.149Z,157.50
2018-12-17T09:33:37.138Z,163.12
2018-12-17T09:34:37.130Z,168.75
2018-12-17T09:35:37.122Z,168.75
2018-12-17T09:36:37.110Z,168.75
2018-12-17T09:37:37.096Z,168.75
2018-12-17T09:38:37.093Z,163.12
2018-12-17T09:39:37.076Z,163.12
2018-12-17T09:40:37.064Z,157.50
2018-12-17T09:41:37.055Z,151.88
2018-12-17T09:42:37.045Z,151.88
2018-12-17T09:43:37.033Z,146.25
2018-12-17T09:44:37.023Z,140.62
2018-12-17T09:45:37.013Z,146.25
2018-12-17T09:46:37.000Z,151.88
2018-12-17T09:47:36.990Z,157.50
2018-12-17T09:48:36.980Z,163.12
2018-12-17T09:49:36.969Z,168.75
2018-12-17T09:50:36.958Z,168.75
2018-12-17T09:51:36.948Z,180.00
2018-12-17T09:52:36.938Z,191.25
2018-12-17T09:53:36.941Z,196.88
2018-12-17T09:54:36.916Z,202.50
2018-12-17T09:55:36.905Z,219.38
2018-12-17T09:56:36.895Z,225.00
2018-12-17T09:57:36.886Z,219.38
2018-12-17T09:58:36.875Z,213.75
2018-12-17T09:59:36.864Z,219.38
2018-12-17T10:00:36.852Z,219.38
2018-12-17T10:01:36.842Z,225.00
2018-12-17T10:02:36.830Z,241.88
2018-12-17T10:03:36.821Z,241.88
2018-12-17T10:04:36.816Z,247.50
2018-12-17T10:05:36.800Z,258.75
2018-12-17T10:06:36.790Z,247.50
2018-12-17T10:07:36.780Z,213.75
2018-12-17T10:08:36.770Z,208.12
2018-12-17T10:09:36.758Z,208.12
2018-12-17T10:10:36.748Z,196.88
2018-12-17T10:11:36.740Z,202.50
2018-12-17T10:12:36.725Z,213.75
2018-12-17T10:13:36.717Z,219.38
2018-12-17T10:14:36.707Z,219.38
2018-12-17T10:15:36.702Z,219.38
2018-12-17T10:16:36.691Z,236.25
2018-12-17T10:17:36.675Z,247.50
2018-12-17T10:18:37.114Z,236.25
2018-12-17T10:19:36.652Z,225.00
2018-12-17T10:20:36.642Z,225.00
2018-12-17T10:21:36.634Z,219.38
2018-12-17T10:22:36.620Z,219.38
2018-12-17T10:23:36.611Z,225.00
2018-12-17T10:24:36.599Z,241.88
2018-12-17T10:25:36.587Z,253.12
2018-12-17T10:26:36.578Z,230.62
2018-12-17T10:27:36.567Z,191.25
2018-12-17T10:28:36.556Z,180.00
2018-12-17T10:29:36.546Z,180.00
2018-12-17T10:30:36.539Z,180.00
2018-12-17T10:31:36.526Z,185.62
2018-12-17T10:32:36.514Z,202.50
2018-12-17T10:33:36.504Z,202.50
2018-12-17T10:34:36.496Z,202.50
2018-12-17T10:35:36.482Z,219.38
2018-12-17T10:36:36.473Z,219.38
2018-12-17T10:37:36.466Z,208.12
2018-12-17T10:38:36.451Z,191.25
2018-12-17T10:39:36.439Z,185.62
2018-12-17T10:40:36.429Z,180.00
2018-12-17T10:41:36.418Z,180.00
2018-12-17T10:42:36.408Z,185.62
2018-12-17T10:43:36.399Z,196.88
2018-12-17T10:44:36.387Z,202.50
2018-12-17T10:45:36.381Z,219.38
2018-12-17T10:46:36.368Z,236.25
2018-12-17T10:47:36.356Z,241.88
2018-12-17T10:48:36.344Z,236.25
2018-12-17T10:49:36.335Z,225.00
2018-12-17T10:50:36.326Z,219.38
2018-12-17T10:51:36.316Z,225.00
2018-12-17T10:52:36.303Z,219.38
2018-12-17T10:53:36.293Z,213.75
2018-12-17T10:54:36.281Z,225.00
2018-12-17T10:55:36.269Z,230.62
2018-12-17T10:56:36.261Z,225.00
2018-12-17T10:57:36.248Z,225.00
2018-12-17T10:58:36.240Z,225.00
2018-12-17T10:59:36.227Z,219.38
2018-12-17T11:00:39.368Z,225.00
2018-12-17T11:01:36.206Z,230.62
2018-12-17T11:02:36.196Z,230.62
2018-12-17T11:03:36.185Z,219.38
2018-12-17T11:04:36.177Z,208.12
2018-12-17T11:05:36.165Z,202.50
2018-12-17T11:06:36.153Z,191.25
2018-12-17T11:07:36.142Z,191.25
2018-12-17T11:08:36.140Z,191.25
2018-12-17T11:09:36.122Z,191.25
2018-12-17T11:10:36.110Z,185.62
2018-12-17T11:11:36.101Z,180.00
2018-12-17T11:12:36.090Z,174.38
2018-12-17T11:13:36.080Z,174.38
2018-12-17T11:14:36.067Z,174.38
2018-12-17T11:15:36.062Z,168.75
2018-12-17T11:16:36.047Z,151.88
2018-12-17T11:17:36.036Z,146.25
2018-12-17T11:18:36.026Z,157.50
2018-12-17T11:19:36.014Z,163.12
2018-12-17T11:20:36.054Z,174.38
2018-12-17T11:21:35.994Z,180.00
2018-12-17T11:22:35.985Z,168.75
2018-12-17T11:23:35.975Z,163.12
2018-12-17T11:24:36.656Z,180.00
2018-12-17T11:25:35.952Z,180.00
2018-12-17T11:26:35.942Z,168.75
2018-12-17T11:27:35.932Z,163.12
2018-12-17T11:28:35.949Z,151.88
2018-12-17T11:29:35.910Z,146.25
2018-12-17T11:30:35.899Z,146.25
2018-12-17T11:31:35.889Z,140.62
2018-12-17T11:32:35.878Z,129.38
2018-12-17T11:33:35.868Z,123.75
2018-12-17T11:34:35.860Z,123.75
2018-12-17T11:35:35.846Z,123.75
2018-12-17T11:36:35.835Z,123.75
2018-12-17T11:37:35.828Z,123.75
2018-12-17T11:38:35.814Z,129.38
2018-12-17T11:39:35.804Z,135.00
2018-12-17T11:40:35.793Z,140.62
2018-12-17T11:41:35.782Z,140.62
2018-12-17T11:42:35.773Z,146.25
2018-12-17T11:43:35.762Z,157.50
2018-12-17T11:44:35.752Z,168.75
2018-12-17T11:45:35.740Z,174.38
2018-12-17T11:46:35.735Z,180.00
2018-12-17T11:47:35.718Z,185.62
2018-12-17T11:48:35.708Z,191.25
2018-12-17T11:49:35.701Z,196.88
2018-12-17T11:50:35.691Z,213.75
2018-12-17T11:51:35.676Z,241.88
2018-12-17T11:52:35.666Z,270.00
2018-12-17T11:53:35.726Z,281.25
2018-12-17T11:54:35.645Z,275.62
2018-12-17T11:55:35.633Z,253.12
2018-12-17T11:56:35.624Z,236.25
2018-12-17T11:57:35.613Z,225.00
2018-12-17T11:58:35.604Z,219.38
2018-12-17T11:59:35.595Z,219.38
2018-12-17T12:00:35.581Z,225.00
2018-12-17T12:01:35.571Z,236.25
2018-12-17T12:02:35.561Z,241.88
2018-12-17T12:03:35.551Z,253.12
2018-12-17T12:04:35.539Z,264.38
2018-12-17T12:05:35.527Z,270.00
2018-12-17T12:06:35.519Z,286.88
2018-12-17T12:07:35.507Z,292.50
2018-12-17T12:08:35.496Z,275.62
2018-12-17T12:09:35.486Z,253.12
2018-12-17T12:10:35.475Z,247.50
2018-12-17T12:11:35.464Z,258.75
2018-12-17T12:12:35.460Z,264.38
2018-12-17T12:13:35.444Z,270.00
2018-12-17T12:14:35.432Z,275.62
2018-12-17T12:15:35.423Z,281.25
2018-12-17T12:16:35.412Z,286.88
2018-12-17T12:17:35.400Z,281.25
2018-12-17T12:18:35.392Z,281.25
2018-12-17T12:19:35.383Z,281.25
2018-12-17T12:20:35.368Z,281.25
2018-12-17T12:21:35.358Z,281.25
2018-12-17T12:22:35.348Z,275.62
2018-12-17T12:23:35.340Z,264.38
2018-12-17T12:24:35.327Z,253.12
2018-12-17T12:25:35.316Z,241.88
2018-12-17T12:26:35.306Z,236.25
2018-12-17T12:27:35.295Z,230.62
2018-12-17T12:28:35.285Z,225.00
2018-12-17T12:29:35.275Z,236.25
2018-12-17T12:30:35.263Z,253.12
2018-12-17T12:31:35.252Z,264.38
2018-12-17T12:32:35.244Z,253.12
2018-12-17T12:33:35.231Z,236.25
2018-12-17T12:34:35.220Z,225.00
2018-12-17T12:35:35.211Z,236.25
2018-12-17T12:36:35.204Z,253.12
2018-12-17T12:37:35.189Z,264.38
2018-12-17T12:38:35.180Z,258.75
2018-12-17T12:39:35.170Z,219.38
2018-12-17T12:40:35.157Z,180.00
2018-12-17T12:41:35.145Z,163.12
2018-12-17T12:42:35.136Z,146.25
2018-12-17T12:43:35.126Z,151.88
2018-12-17T12:44:35.116Z,163.12
2018-12-17T12:45:35.111Z,174.38
2018-12-17T12:46:35.093Z,168.75
2018-12-17T12:47:35.082Z,157.50
2018-12-17T12:48:35.076Z,163.12
2018-12-17T12:49:35.061Z,168.75
2018-12-17T12:50:35.052Z,163.12
2018-12-17T12:51:35.045Z,151.88
2018-12-17T12:52:35.032Z,140.62
2018-12-17T12:53:35.021Z,140.62
2018-12-17T12:54:35.008Z,151.88
2018-12-17T12:55:35.000Z,151.88
2018-12-17T12:56:34.986Z,151.88
2018-12-17T12:57:34.979Z,157.50
2018-12-17T12:58:34.968Z,163.12